PWSweather.com
Personal Weather Stations
Station Observations
DW6359
Southwest Cambria, Cambria, WI 53923

Southwest CambriaCambria, WI 53923

Lat: 43.541194, Lon: -89.11275

Elevation: 945

Station Type: Davis Vantage Pro2

http://home.centurytel.net/weathercambria/wxcambria.html

High Low Average
Temperature 17.0°F-8.3°C -1.6°F-18.7°C 11.2°F-11.6°C
Dew Point 12.6°F-10.8°C -6.0°F-21.1°C 5.4°F-14.8°C
Winds 10.0 mph 16.1 kmh Calm Calm 2.0 mph E3.2 kmh E
Wind Gusts 14.0 mph22.5 kmh -- 1.0 mph1.6 kmh
Humidity 87% 58% 78%
Pressure 30.44 in1030.8 mb 30.35 in1027.8 mb -
Precipitation 0.00 in0.0 mm - -
Hour Temp Dew Point Humidity Winds Wind Gusts Pressure Precip Precip Rate Daily Precip Total
12:00 AM 15.5°F-9.2°C 11.3°F-11.5°C 83% Calm Calm -- 30.44 in1030.8 mb 0.00 in0.0 mm 0.00 in0.0 mm 0.00 in0.0 mm
12:05 AM 15.5°F-9.2°C 11.3°F-11.5°C 83% Calm Calm -- 30.44 in1030.8 mb 0.00 in0.0 mm 0.00 in0.0 mm 0.00 in0.0 mm
12:10 AM 15.6°F-9.1°C 11.4°F-11.4°C 83% Calm Calm -- 30.44 in1030.8 mb 0.00 in0.0 mm 0.00 in0.0 mm 0.00 in0.0 mm
12:15 AM 15.5°F-9.2°C 11.3°F-11.5°C 83% Calm Calm -- 30.44 in1030.8 mb 0.00 in0.0 mm 0.00 in0.0 mm 0.00 in0.0 mm
12:20 AM 15.6°F-9.1°C 11.4°F-11.4°C 83% Calm Calm -- 30.44 in1030.8 mb 0.00 in0.0 mm 0.00 in0.0 mm 0.00 in0.0 mm
12:25 AM 15.5°F-9.2°C 11.5°F-11.4°C 84% Calm Calm -- 30.43 in1030.5 mb 0.00 in0.0 mm 0.00 in0.0 mm 0.00 in0.0 mm
12:30 AM 15.5°F-9.2°C 11.5°F-11.4°C 84% Calm Calm -- 30.43 in1030.5 mb 0.00 in0.0 mm 0.00 in0.0 mm 0.00 in0.0 mm
12:35 AM 15.5°F-9.2°C 11.5°F-11.4°C 84% Calm Calm -- 30.43 in1030.5 mb 0.00 in0.0 mm 0.00 in0.0 mm 0.00 in0.0 mm
12:40 AM 16.5°F-8.6°C 12.0°F-11.1°C 82% Calm Calm -- 30.43 in1030.5 mb 0.00 in0.0 mm 0.00 in0.0 mm 0.00 in0.0 mm
12:45 AM 16.5°F-8.6°C 12.0°F-11.1°C 82% Calm Calm -- 30.43 in1030.5 mb 0.00 in0.0 mm 0.00 in0.0 mm 0.00 in0.0 mm
12:50 AM 16.4°F-8.7°C 12.2°F-11.0°C 83% Calm Calm -- 30.43 in1030.5 mb 0.00 in0.0 mm 0.00 in0.0 mm 0.00 in0.0 mm
12:55 AM 16.4°F-8.7°C 12.2°F-11.0°C 83% Calm Calm -- 30.43 in1030.5 mb 0.00 in0.0 mm 0.00 in0.0 mm 0.00 in0.0 mm
01:00 AM 16.4°F-8.7°C 12.2°F-11.0°C 83% Calm Calm -- 30.43 in1030.5 mb 0.00 in0.0 mm 0.00 in0.0 mm 0.00 in0.0 mm
01:05 AM 16.4°F-8.7°C 12.4°F-10.9°C 84% Calm Calm -- 30.42 in1030.1 mb 0.00 in0.0 mm 0.00 in0.0 mm 0.00 in0.0 mm
01:10 AM 16.3°F-8.7°C 12.3°F-10.9°C 84% Calm Calm -- 30.43 in1030.5 mb 0.00 in0.0 mm 0.00 in0.0 mm 0.00 in0.0 mm
01:15 AM 16.3°F-8.7°C 12.3°F-10.9°C 84% Calm Calm -- 30.43 in1030.5 mb 0.00 in0.0 mm 0.00 in0.0 mm 0.00 in0.0 mm
01:20 AM 16.3°F-8.7°C 12.6°F-10.8°C 85% Calm Calm -- 30.43 in1030.5 mb 0.00 in0.0 mm 0.00 in0.0 mm 0.00 in0.0 mm
01:25 AM 16.2°F-8.8°C 12.5°F-10.8°C 85% Calm Calm -- 30.43 in1030.5 mb 0.00 in0.0 mm 0.00 in0.0 mm 0.00 in0.0 mm
01:30 AM 16.2°F-8.8°C 12.5°F-10.8°C 85% Calm Calm -- 30.43 in1030.5 mb 0.00 in0.0 mm 0.00 in0.0 mm 0.00 in0.0 mm
01:35 AM 16.0°F-8.9°C 12.3°F-10.9°C 85% Calm Calm -- 30.43 in1030.5 mb 0.00 in0.0 mm 0.00 in0.0 mm 0.00 in0.0 mm
01:40 AM 16.0°F-8.9°C 12.6°F-10.8°C 86% Calm Calm -- 30.43 in1030.5 mb 0.00 in0.0 mm 0.00 in0.0 mm 0.00 in0.0 mm
01:45 AM 15.9°F-8.9°C 12.5°F-10.8°C 86% Calm Calm -- 30.43 in1030.5 mb 0.00 in0.0 mm 0.00 in0.0 mm 0.00 in0.0 mm
01:50 AM 15.9°F-8.9°C 12.5°F-10.8°C 86% Calm Calm -- 30.43 in1030.5 mb 0.00 in0.0 mm 0.00 in0.0 mm 0.00 in0.0 mm
01:55 AM 15.9°F-8.9°C 12.5°F-10.8°C 86% Calm Calm -- 30.42 in1030.1 mb 0.00 in0.0 mm 0.00 in0.0 mm 0.00 in0.0 mm
02:00 AM 15.8°F-9.0°C 12.4°F-10.9°C 86% Calm Calm -- 30.42 in1030.1 mb 0.00 in0.0 mm 0.00 in0.0 mm 0.00 in0.0 mm
02:05 AM 15.8°F-9.0°C 12.4°F-10.9°C 86% Calm Calm -- 30.42 in1030.1 mb 0.00 in0.0 mm 0.00 in0.0 mm 0.00 in0.0 mm
02:10 AM 15.8°F-9.0°C 12.4°F-10.9°C 86% Calm Calm -- 30.43 in1030.5 mb 0.00 in0.0 mm 0.00 in0.0 mm 0.00 in0.0 mm
02:15 AM 15.7°F-9.1°C 12.3°F-10.9°C 86% Calm Calm -- 30.43 in1030.5 mb 0.00 in0.0 mm 0.00 in0.0 mm 0.00 in0.0 mm
02:20 AM 15.7°F-9.1°C 12.5°F-10.8°C 87% Calm Calm -- 30.43 in1030.5 mb 0.00 in0.0 mm 0.00 in0.0 mm 0.00 in0.0 mm
02:25 AM 15.7°F-9.1°C 12.5°F-10.8°C 87% Calm Calm -- 30.43 in1030.5 mb 0.00 in0.0 mm 0.00 in0.0 mm 0.00 in0.0 mm
02:30 AM 15.8°F-9.0°C 12.6°F-10.8°C 87% Calm Calm -- 30.43 in1030.5 mb 0.00 in0.0 mm 0.00 in0.0 mm 0.00 in0.0 mm
02:35 AM 15.7°F-9.1°C 12.5°F-10.8°C 87% Calm Calm -- 30.43 in1030.5 mb 0.00 in0.0 mm 0.00 in0.0 mm 0.00 in0.0 mm
02:40 AM 15.7°F-9.1°C 12.5°F-10.8°C 87% Calm Calm -- 30.42 in1030.1 mb 0.00 in0.0 mm 0.00 in0.0 mm 0.00 in0.0 mm
02:45 AM 15.7°F-9.1°C 12.5°F-10.8°C 87% Calm Calm -- 30.42 in1030.1 mb 0.00 in0.0 mm 0.00 in0.0 mm 0.00 in0.0 mm
02:50 AM 15.7°F-9.1°C 12.5°F-10.8°C 87% Calm Calm -- 30.42 in1030.1 mb 0.00 in0.0 mm 0.00 in0.0 mm 0.00 in0.0 mm
02:55 AM 15.6°F-9.1°C 12.4°F-10.9°C 87% Calm Calm -- 30.42 in1030.1 mb 0.00 in0.0 mm 0.00 in0.0 mm 0.00 in0.0 mm
03:00 AM 15.6°F-9.1°C 12.4°F-10.9°C 87% Calm Calm -- 30.42 in1030.1 mb 0.00 in0.0 mm 0.00 in0.0 mm 0.00 in0.0 mm
03:05 AM 15.5°F-9.2°C 12.3°F-10.9°C 87% Calm Calm -- 30.41 in1029.8 mb 0.00 in0.0 mm 0.00 in0.0 mm 0.00 in0.0 mm
03:10 AM 15.5°F-9.2°C 12.3°F-10.9°C 87% Calm Calm -- 30.41 in1029.8 mb 0.00 in0.0 mm 0.00 in0.0 mm 0.00 in0.0 mm
03:15 AM 15.5°F-9.2°C 12.3°F-10.9°C 87% Calm Calm -- 30.41 in1029.8 mb 0.00 in0.0 mm 0.00 in0.0 mm 0.00 in0.0 mm
03:20 AM 15.6°F-9.1°C 12.4°F-10.9°C 87% Calm Calm -- 30.41 in1029.8 mb 0.00 in0.0 mm 0.00 in0.0 mm 0.00 in0.0 mm
03:25 AM 15.6°F-9.1°C 12.4°F-10.9°C 87% Calm Calm -- 30.41 in1029.8 mb 0.00 in0.0 mm 0.00 in0.0 mm 0.00 in0.0 mm
03:30 AM 15.6°F-9.1°C 12.4°F-10.9°C 87% 1.0 mph N1.6 kmh N -- 30.41 in1029.8 mb 0.00 in0.0 mm 0.00 in0.0 mm 0.00 in0.0 mm
03:35 AM 15.6°F-9.1°C 12.4°F-10.9°C 87% Calm Calm -- 30.40 in1029.5 mb 0.00 in0.0 mm 0.00 in0.0 mm 0.00 in0.0 mm
03:40 AM 15.5°F-9.2°C 12.3°F-10.9°C 87% 4.0 mph NNE6.4 kmh NNE 5.0 mph8.0 kmh 30.40 in1029.5 mb 0.00 in0.0 mm 0.00 in0.0 mm 0.00 in0.0 mm
03:45 AM 15.4°F-9.2°C 12.2°F-11.0°C 87% 4.0 mph N6.4 kmh N 5.0 mph8.0 kmh 30.41 in1029.8 mb 0.00 in0.0 mm 0.00 in0.0 mm 0.00 in0.0 mm
03:50 AM 15.3°F-9.3°C 12.1°F-11.1°C 87% Calm Calm -- 30.41 in1029.8 mb 0.00 in0.0 mm 0.00 in0.0 mm 0.00 in0.0 mm
03:55 AM 15.2°F-9.3°C 12.0°F-11.1°C 87% 4.0 mph N6.4 kmh N -- 30.40 in1029.5 mb 0.00 in0.0 mm 0.00 in0.0 mm 0.00 in0.0 mm
04:00 AM 15.0°F-9.4°C 11.8°F-11.2°C 87% 7.0 mph N11.3 kmh N -- 30.40 in1029.5 mb 0.00 in0.0 mm 0.00 in0.0 mm 0.00 in0.0 mm
04:05 AM 14.8°F-9.6°C 11.6°F-11.3°C 87% 5.0 mph NE8.0 kmh NE -- 30.39 in1029.1 mb 0.00 in0.0 mm 0.00 in0.0 mm 0.00 in0.0 mm
04:10 AM 14.5°F-9.7°C 11.4°F-11.4°C 87% 4.0 mph NE6.4 kmh NE -- 30.39 in1029.1 mb 0.00 in0.0 mm 0.00 in0.0 mm 0.00 in0.0 mm
04:15 AM 14.3°F-9.8°C 11.2°F-11.6°C 87% 4.0 mph NNE6.4 kmh NNE -- 30.39 in1029.1 mb 0.00 in0.0 mm 0.00 in0.0 mm 0.00 in0.0 mm
04:20 AM 14.0°F-10.0°C 10.6°F-11.9°C 86% 3.0 mph NE4.8 kmh NE -- 30.40 in1029.5 mb 0.00 in0.0 mm 0.00 in0.0 mm 0.00 in0.0 mm
04:25 AM 13.8°F-10.1°C 10.4°F-12.0°C 86% 5.0 mph NE8.0 kmh NE -- 30.39 in1029.1 mb 0.00 in0.0 mm 0.00 in0.0 mm 0.00 in0.0 mm
04:30 AM 13.7°F-10.2°C 10.3°F-12.1°C 86% 7.0 mph NE11.3 kmh NE 8.0 mph12.9 kmh 30.39 in1029.1 mb 0.00 in0.0 mm 0.00 in0.0 mm 0.00 in0.0 mm
04:35 AM 13.6°F-10.2°C 10.2°F-12.1°C 86% 5.0 mph N8.0 kmh N 8.0 mph12.9 kmh 30.39 in1029.1 mb 0.00 in0.0 mm 0.00 in0.0 mm 0.00 in0.0 mm
04:40 AM 13.6°F-10.2°C 10.2°F-12.1°C 86% 3.0 mph NE4.8 kmh NE -- 30.39 in1029.1 mb 0.00 in0.0 mm 0.00 in0.0 mm 0.00 in0.0 mm
04:45 AM 13.6°F-10.2°C 10.2°F-12.1°C 86% 6.0 mph NNE9.7 kmh NNE -- 30.39 in1029.1 mb 0.00 in0.0 mm 0.00 in0.0 mm 0.00 in0.0 mm
04:50 AM 13.5°F-10.3°C 10.1°F-12.2°C 86% 6.0 mph NE9.7 kmh NE -- 30.39 in1029.1 mb 0.00 in0.0 mm 0.00 in0.0 mm 0.00 in0.0 mm
04:55 AM 13.4°F-10.3°C 10.0°F-12.2°C 86% 4.0 mph NNE6.4 kmh NNE -- 30.39 in1029.1 mb 0.00 in0.0 mm 0.00 in0.0 mm 0.00 in0.0 mm
05:00 AM 13.3°F-10.4°C 9.9°F-12.3°C 86% Calm Calm -- 30.39 in1029.1 mb 0.00 in0.0 mm 0.00 in0.0 mm 0.00 in0.0 mm
05:05 AM 13.2°F-10.4°C 9.8°F-12.3°C 86% 4.0 mph N6.4 kmh N -- 30.38 in1028.8 mb 0.00 in0.0 mm 0.00 in0.0 mm 0.00 in0.0 mm
05:10 AM 13.2°F-10.4°C 9.8°F-12.3°C 86% Calm Calm -- 30.39 in1029.1 mb 0.00 in0.0 mm 0.00 in0.0 mm 0.00 in0.0 mm
05:15 AM 13.1°F-10.5°C 9.7°F-12.4°C 86% 4.0 mph NNE6.4 kmh NNE -- 30.39 in1029.1 mb 0.00 in0.0 mm 0.00 in0.0 mm 0.00 in0.0 mm
05:20 AM 13.1°F-10.5°C 9.7°F-12.4°C 86% Calm Calm 7.0 mph11.3 kmh 30.38 in1028.8 mb 0.00 in0.0 mm 0.00 in0.0 mm 0.00 in0.0 mm
05:25 AM 13.1°F-10.5°C 9.7°F-12.4°C 86% Calm Calm 7.0 mph11.3 kmh 30.38 in1028.8 mb 0.00 in0.0 mm 0.00 in0.0 mm 0.00 in0.0 mm
05:30 AM 13.1°F-10.5°C 9.7°F-12.4°C 86% 4.0 mph NNE6.4 kmh NNE -- 30.39 in1029.1 mb 0.00 in0.0 mm 0.00 in0.0 mm 0.00 in0.0 mm
05:35 AM 13.0°F-10.6°C 9.6°F-12.4°C 86% 3.0 mph N4.8 kmh N -- 30.39 in1029.1 mb 0.00 in0.0 mm 0.00 in0.0 mm 0.00 in0.0 mm
05:40 AM 13.1°F-10.5°C 9.7°F-12.4°C 86% 5.0 mph NE8.0 kmh NE -- 30.40 in1029.5 mb 0.00 in0.0 mm 0.00 in0.0 mm 0.00 in0.0 mm
05:45 AM 13.1°F-10.5°C 9.7°F-12.4°C 86% Calm Calm -- 30.40 in1029.5 mb 0.00 in0.0 mm 0.00 in0.0 mm 0.00 in0.0 mm
05:50 AM 13.0°F-10.6°C 9.6°F-12.4°C 86% 2.0 mph NNE3.2 kmh NNE -- 30.39 in1029.1 mb 0.00 in0.0 mm 0.00 in0.0 mm 0.00 in0.0 mm
05:55 AM 13.0°F-10.6°C 9.6°F-12.4°C 86% 2.0 mph NNE3.2 kmh NNE -- 30.39 in1029.1 mb 0.00 in0.0 mm 0.00 in0.0 mm 0.00 in0.0 mm
06:00 AM 13.0°F-10.6°C 9.6°F-12.4°C 86% 4.0 mph N6.4 kmh N -- 30.40 in1029.5 mb 0.00 in0.0 mm 0.00 in0.0 mm 0.00 in0.0 mm
06:05 AM 13.0°F-10.6°C 9.6°F-12.4°C 86% 2.0 mph N3.2 kmh N -- 30.39 in1029.1 mb 0.00 in0.0 mm 0.00 in0.0 mm 0.00 in0.0 mm
06:10 AM 13.0°F-10.6°C 9.6°F-12.4°C 86% 3.0 mph N4.8 kmh N 5.0 mph8.0 kmh 30.40 in1029.5 mb 0.00 in0.0 mm 0.00 in0.0 mm 0.00 in0.0 mm
06:15 AM 12.9°F-10.6°C 9.5°F-12.5°C 86% Calm Calm 5.0 mph8.0 kmh 30.39 in1029.1 mb 0.00 in0.0 mm 0.00 in0.0 mm 0.00 in0.0 mm
06:20 AM 12.9°F-10.6°C 9.5°F-12.5°C 86% Calm Calm -- 30.39 in1029.1 mb 0.00 in0.0 mm 0.00 in0.0 mm 0.00 in0.0 mm
06:25 AM 12.8°F-10.7°C 9.4°F-12.6°C 86% Calm Calm -- 30.39 in1029.1 mb 0.00 in0.0 mm 0.00 in0.0 mm 0.00 in0.0 mm
06:30 AM 12.8°F-10.7°C 9.4°F-12.6°C 86% Calm Calm -- 30.39 in1029.1 mb 0.00 in0.0 mm 0.00 in0.0 mm 0.00 in0.0 mm
06:35 AM 12.7°F-10.7°C 9.3°F-12.6°C 86% Calm Calm -- 30.39 in1029.1 mb 0.00 in0.0 mm 0.00 in0.0 mm 0.00 in0.0 mm
06:40 AM 12.7°F-10.7°C 9.3°F-12.6°C 86% 2.0 mph NE3.2 kmh NE -- 30.39 in1029.1 mb 0.00 in0.0 mm 0.00 in0.0 mm 0.00 in0.0 mm
06:45 AM 12.7°F-10.7°C 9.3°F-12.6°C 86% Calm Calm -- 30.39 in1029.1 mb 0.00 in0.0 mm 0.00 in0.0 mm 0.00 in0.0 mm
06:50 AM 12.7°F-10.7°C 9.3°F-12.6°C 86% 3.0 mph NE4.8 kmh NE -- 30.39 in1029.1 mb 0.00 in0.0 mm 0.00 in0.0 mm 0.00 in0.0 mm
06:55 AM 12.6°F-10.8°C 9.2°F-12.7°C 86% 1.0 mph NE1.6 kmh NE -- 30.39 in1029.1 mb 0.00 in0.0 mm 0.00 in0.0 mm 0.00 in0.0 mm
07:00 AM 12.6°F-10.8°C 9.2°F-12.7°C 86% Calm Calm 6.0 mph9.7 kmh 30.39 in1029.1 mb 0.00 in0.0 mm 0.00 in0.0 mm 0.00 in0.0 mm
07:05 AM 12.6°F-10.8°C 9.2°F-12.7°C 86% 5.0 mph N8.0 kmh N 6.0 mph9.7 kmh 30.40 in1029.5 mb 0.00 in0.0 mm 0.00 in0.0 mm 0.00 in0.0 mm
07:10 AM 12.5°F-10.8°C 9.1°F-12.7°C 86% Calm Calm -- 30.40 in1029.5 mb 0.00 in0.0 mm 0.00 in0.0 mm 0.00 in0.0 mm
07:15 AM 12.5°F-10.8°C 9.1°F-12.7°C 86% Calm Calm -- 30.40 in1029.5 mb 0.00 in0.0 mm 0.00 in0.0 mm 0.00 in0.0 mm
07:20 AM 12.5°F-10.8°C 9.1°F-12.7°C 86% 3.0 mph N4.8 kmh N -- 30.41 in1029.8 mb 0.00 in0.0 mm 0.00 in0.0 mm 0.00 in0.0 mm
07:25 AM 12.5°F-10.8°C 9.1°F-12.7°C 86% 2.0 mph N3.2 kmh N -- 30.40 in1029.5 mb 0.00 in0.0 mm 0.00 in0.0 mm 0.00 in0.0 mm
07:30 AM 12.5°F-10.8°C 9.1°F-12.7°C 86% Calm Calm -- 30.41 in1029.8 mb 0.00 in0.0 mm 0.00 in0.0 mm 0.00 in0.0 mm
07:35 AM 12.5°F-10.8°C 9.1°F-12.7°C 86% 2.0 mph N3.2 kmh N -- 30.41 in1029.8 mb 0.00 in0.0 mm 0.00 in0.0 mm 0.00 in0.0 mm
07:40 AM 12.4°F-10.9°C 9.0°F-12.8°C 86% 1.0 mph N1.6 kmh N -- 30.41 in1029.8 mb 0.00 in0.0 mm 0.00 in0.0 mm 0.00 in0.0 mm
07:45 AM 12.4°F-10.9°C 9.0°F-12.8°C 86% 4.0 mph NNE6.4 kmh NNE -- 30.41 in1029.8 mb 0.00 in0.0 mm 0.00 in0.0 mm 0.00 in0.0 mm
07:50 AM 12.3°F-10.9°C 8.9°F-12.8°C 86% 3.0 mph NNE4.8 kmh NNE 6.0 mph9.7 kmh 30.41 in1029.8 mb 0.00 in0.0 mm 0.00 in0.0 mm 0.00 in0.0 mm
07:55 AM 12.3°F-10.9°C 8.9°F-12.8°C 86% 4.0 mph NNW6.4 kmh NNW 6.0 mph9.7 kmh 30.42 in1030.1 mb 0.00 in0.0 mm 0.00 in0.0 mm 0.00 in0.0 mm
08:00 AM 12.3°F-10.9°C 8.7°F-12.9°C 85% 4.0 mph NNE6.4 kmh NNE -- 30.42 in1030.1 mb 0.00 in0.0 mm 0.00 in0.0 mm 0.00 in0.0 mm
08:05 AM 12.2°F-11.0°C 8.6°F-13.0°C 85% Calm Calm -- 30.42 in1030.1 mb 0.00 in0.0 mm 0.00 in0.0 mm 0.00 in0.0 mm
08:10 AM 12.2°F-11.0°C 8.6°F-13.0°C 85% 4.0 mph NNE6.4 kmh NNE -- 30.42 in1030.1 mb 0.00 in0.0 mm 0.00 in0.0 mm 0.00 in0.0 mm
08:15 AM 12.1°F-11.1°C 8.5°F-13.1°C 85% 4.0 mph N6.4 kmh N -- 30.42 in1030.1 mb 0.00 in0.0 mm 0.00 in0.0 mm 0.00 in0.0 mm
08:20 AM 12.1°F-11.1°C 8.5°F-13.1°C 85% 4.0 mph N6.4 kmh N -- 30.42 in1030.1 mb 0.00 in0.0 mm 0.00 in0.0 mm 0.00 in0.0 mm
08:25 AM 12.0°F-11.1°C 8.6°F-13.0°C 86% 5.0 mph N8.0 kmh N -- 30.42 in1030.1 mb 0.00 in0.0 mm 0.00 in0.0 mm 0.00 in0.0 mm
08:30 AM 12.0°F-11.1°C 8.4°F-13.1°C 85% 3.0 mph N4.8 kmh N -- 30.42 in1030.1 mb 0.00 in0.0 mm 0.00 in0.0 mm 0.00 in0.0 mm
08:35 AM 11.9°F-11.2°C 8.3°F-13.2°C 85% 4.0 mph N6.4 kmh N -- 30.42 in1030.1 mb 0.00 in0.0 mm 0.00 in0.0 mm 0.00 in0.0 mm
08:40 AM 11.9°F-11.2°C 8.3°F-13.2°C 85% 4.0 mph NE6.4 kmh NE 10.0 mph16.1 kmh 30.43 in1030.5 mb 0.00 in0.0 mm 0.00 in0.0 mm 0.00 in0.0 mm
08:45 AM 11.9°F-11.2°C 8.3°F-13.2°C 85% 1.0 mph N1.6 kmh N 10.0 mph16.1 kmh 30.42 in1030.1 mb 0.00 in0.0 mm 0.00 in0.0 mm 0.00 in0.0 mm
08:50 AM 11.8°F-11.2°C 8.2°F-13.2°C 85% 5.0 mph N8.0 kmh N -- 30.43 in1030.5 mb 0.00 in0.0 mm 0.00 in0.0 mm 0.00 in0.0 mm
08:55 AM 11.8°F-11.2°C 8.2°F-13.2°C 85% 4.0 mph N6.4 kmh N -- 30.43 in1030.5 mb 0.00 in0.0 mm 0.00 in0.0 mm 0.00 in0.0 mm
09:00 AM 11.7°F-11.3°C 8.1°F-13.3°C 85% 4.0 mph NNE6.4 kmh NNE -- 30.43 in1030.5 mb 0.00 in0.0 mm 0.00 in0.0 mm 0.00 in0.0 mm
09:05 AM 11.6°F-11.3°C 8.0°F-13.3°C 85% 9.0 mph N14.5 kmh N -- 30.43 in1030.5 mb 0.00 in0.0 mm 0.00 in0.0 mm 0.00 in0.0 mm
09:10 AM 11.5°F-11.4°C 7.9°F-13.4°C 85% 3.0 mph NNE4.8 kmh NNE -- 30.43 in1030.5 mb 0.00 in0.0 mm 0.00 in0.0 mm 0.00 in0.0 mm
09:15 AM 11.5°F-11.4°C 7.9°F-13.4°C 85% 10.0 mph N16.1 kmh N -- 30.42 in1030.1 mb 0.00 in0.0 mm 0.00 in0.0 mm 0.00 in0.0 mm
09:20 AM 11.4°F-11.4°C 7.8°F-13.4°C 85% 3.0 mph N4.8 kmh N -- 30.43 in1030.5 mb 0.00 in0.0 mm 0.00 in0.0 mm 0.00 in0.0 mm
09:25 AM 11.4°F-11.4°C 7.8°F-13.4°C 85% 3.0 mph NNE4.8 kmh NNE -- 30.43 in1030.5 mb 0.00 in0.0 mm 0.00 in0.0 mm 0.00 in0.0 mm
09:30 AM 11.3°F-11.5°C 7.4°F-13.7°C 84% 5.0 mph N8.0 kmh N 12.0 mph19.3 kmh 30.42 in1030.1 mb 0.00 in0.0 mm 0.00 in0.0 mm 0.00 in0.0 mm
09:35 AM 11.3°F-11.5°C 7.4°F-13.7°C 84% 3.0 mph N4.8 kmh N 12.0 mph19.3 kmh 30.42 in1030.1 mb 0.00 in0.0 mm 0.00 in0.0 mm 0.00 in0.0 mm
09:40 AM 11.2°F-11.6°C 7.3°F-13.7°C 84% 4.0 mph N6.4 kmh N -- 30.43 in1030.5 mb 0.00 in0.0 mm 0.00 in0.0 mm 0.00 in0.0 mm
09:45 AM 11.0°F-11.7°C 7.1°F-13.8°C 84% 2.0 mph N3.2 kmh N -- 30.43 in1030.5 mb 0.00 in0.0 mm 0.00 in0.0 mm 0.00 in0.0 mm
09:50 AM 10.9°F-11.7°C 7.0°F-13.9°C 84% 4.0 mph NNW6.4 kmh NNW -- 30.42 in1030.1 mb 0.00 in0.0 mm 0.00 in0.0 mm 0.00 in0.0 mm
09:55 AM 10.9°F-11.7°C 7.0°F-13.9°C 84% 4.0 mph NE6.4 kmh NE -- 30.42 in1030.1 mb 0.00 in0.0 mm 0.00 in0.0 mm 0.00 in0.0 mm
10:00 AM 10.8°F-11.8°C 6.9°F-13.9°C 84% 4.0 mph N6.4 kmh N -- 30.43 in1030.5 mb 0.00 in0.0 mm 0.00 in0.0 mm 0.00 in0.0 mm
10:05 AM 10.8°F-11.8°C 6.9°F-13.9°C 84% 7.0 mph N11.3 kmh N -- 30.43 in1030.5 mb 0.00 in0.0 mm 0.00 in0.0 mm 0.00 in0.0 mm
10:10 AM 10.9°F-11.7°C 7.0°F-13.9°C 84% 7.0 mph N11.3 kmh N -- 30.43 in1030.5 mb 0.00 in0.0 mm 0.00 in0.0 mm 0.00 in0.0 mm
10:15 AM 10.9°F-11.7°C 7.0°F-13.9°C 84% 6.0 mph NNE9.7 kmh NNE -- 30.43 in1030.5 mb 0.00 in0.0 mm 0.00 in0.0 mm 0.00 in0.0 mm
10:20 AM 10.9°F-11.7°C 6.8°F-14.0°C 83% 2.0 mph N3.2 kmh N 10.0 mph16.1 kmh 30.43 in1030.5 mb 0.00 in0.0 mm 0.00 in0.0 mm 0.00 in0.0 mm
10:25 AM 11.1°F-11.6°C 7.0°F-13.9°C 83% 9.0 mph N14.5 kmh N 10.0 mph16.1 kmh 30.42 in1030.1 mb 0.00 in0.0 mm 0.00 in0.0 mm 0.00 in0.0 mm
10:30 AM 11.2°F-11.6°C 7.1°F-13.8°C 83% 8.0 mph N12.9 kmh N -- 30.43 in1030.5 mb 0.00 in0.0 mm 0.00 in0.0 mm 0.00 in0.0 mm
10:35 AM 11.3°F-11.5°C 7.2°F-13.8°C 83% 6.0 mph N9.7 kmh N -- 30.43 in1030.5 mb 0.00 in0.0 mm 0.00 in0.0 mm 0.00 in0.0 mm
10:40 AM 11.4°F-11.4°C 7.3°F-13.7°C 83% 7.0 mph NNW11.3 kmh NNW -- 30.43 in1030.5 mb 0.00 in0.0 mm 0.00 in0.0 mm 0.00 in0.0 mm
10:45 AM 11.4°F-11.4°C 7.0°F-13.9°C 82% 4.0 mph N6.4 kmh N -- 30.42 in1030.1 mb 0.00 in0.0 mm 0.00 in0.0 mm 0.00 in0.0 mm
10:50 AM 11.3°F-11.5°C 6.9°F-13.9°C 82% 6.0 mph N9.7 kmh N -- 30.41 in1029.8 mb 0.00 in0.0 mm 0.00 in0.0 mm 0.00 in0.0 mm
10:55 AM 11.4°F-11.4°C 7.0°F-13.9°C 82% 5.0 mph NE8.0 kmh NE -- 30.42 in1030.1 mb 0.00 in0.0 mm 0.00 in0.0 mm 0.00 in0.0 mm
11:00 AM 11.2°F-11.6°C 6.5°F-14.2°C 81% 6.0 mph N9.7 kmh N -- 30.42 in1030.1 mb 0.00 in0.0 mm 0.00 in0.0 mm 0.00 in0.0 mm
11:05 AM 11.0°F-11.7°C 6.3°F-14.3°C 81% 2.0 mph N3.2 kmh N -- 30.43 in1030.5 mb 0.00 in0.0 mm 0.00 in0.0 mm 0.00 in0.0 mm
11:10 AM 10.2°F-12.1°C 5.6°F-14.7°C 81% 8.0 mph NNE12.9 kmh NNE 14.0 mph22.5 kmh 30.43 in1030.5 mb 0.00 in0.0 mm 0.00 in0.0 mm 0.00 in0.0 mm
11:15 AM 10.1°F-12.2°C 5.2°F-14.9°C 80% 7.0 mph NE11.3 kmh NE 14.0 mph22.5 kmh 30.43 in1030.5 mb 0.00 in0.0 mm 0.00 in0.0 mm 0.00 in0.0 mm
11:20 AM 10.3°F-12.1°C 5.4°F-14.8°C 80% 9.0 mph NE14.5 kmh NE -- 30.43 in1030.5 mb 0.00 in0.0 mm 0.00 in0.0 mm 0.00 in0.0 mm
11:25 AM 10.5°F-11.9°C 5.6°F-14.7°C 80% 8.0 mph NNE12.9 kmh NNE -- 30.43 in1030.5 mb 0.00 in0.0 mm 0.00 in0.0 mm 0.00 in0.0 mm
11:30 AM 10.9°F-11.7°C 6.0°F-14.4°C 80% 7.0 mph NNE11.3 kmh NNE -- 30.44 in1030.8 mb 0.00 in0.0 mm 0.00 in0.0 mm 0.00 in0.0 mm
11:35 AM 11.1°F-11.6°C 5.9°F-14.5°C 79% 9.0 mph NNW14.5 kmh NNW -- 30.43 in1030.5 mb 0.00 in0.0 mm 0.00 in0.0 mm 0.00 in0.0 mm
11:40 AM 12.4°F-10.9°C 7.2°F-13.8°C 79% Calm Calm -- 30.43 in1030.5 mb 0.00 in0.0 mm 0.00 in0.0 mm 0.00 in0.0 mm
11:45 AM 12.8°F-10.7°C 7.5°F-13.6°C 79% 4.0 mph N6.4 kmh N -- 30.43 in1030.5 mb 0.00 in0.0 mm 0.00 in0.0 mm 0.00 in0.0 mm
11:50 AM 12.7°F-10.7°C 7.2°F-13.8°C 78% 5.0 mph N8.0 kmh N -- 30.44 in1030.8 mb 0.00 in0.0 mm 0.00 in0.0 mm 0.00 in0.0 mm
11:55 AM 12.8°F-10.7°C 7.3°F-13.7°C 78% 1.0 mph N1.6 kmh N -- 30.43 in1030.5 mb 0.00 in0.0 mm 0.00 in0.0 mm 0.00 in0.0 mm
12:00 PM 12.9°F-10.6°C 7.4°F-13.7°C 78% 1.0 mph N1.6 kmh N 7.0 mph11.3 kmh 30.43 in1030.5 mb 0.00 in0.0 mm 0.00 in0.0 mm 0.00 in0.0 mm
12:05 PM 13.1°F-10.5°C 7.3°F-13.7°C 77% 5.0 mph N8.0 kmh N 7.0 mph11.3 kmh 30.43 in1030.5 mb 0.00 in0.0 mm 0.00 in0.0 mm 0.00 in0.0 mm
12:10 PM 13.2°F-10.4°C 7.4°F-13.7°C 77% 3.0 mph N4.8 kmh N -- 30.43 in1030.5 mb 0.00 in0.0 mm 0.00 in0.0 mm 0.00 in0.0 mm
12:15 PM 13.4°F-10.3°C 7.6°F-13.6°C 77% 4.0 mph N6.4 kmh N -- 30.43 in1030.5 mb 0.00 in0.0 mm 0.00 in0.0 mm 0.00 in0.0 mm
12:20 PM 13.7°F-10.2°C 7.9°F-13.4°C 77% Calm Calm -- 30.43 in1030.5 mb 0.00 in0.0 mm 0.00 in0.0 mm 0.00 in0.0 mm
12:25 PM 14.1°F-9.9°C 8.2°F-13.2°C 77% 6.0 mph NNW9.7 kmh NNW -- 30.42 in1030.1 mb 0.00 in0.0 mm 0.00 in0.0 mm 0.00 in0.0 mm
12:30 PM 14.0°F-10.0°C 7.9°F-13.4°C 76% 8.0 mph N12.9 kmh N -- 30.41 in1029.8 mb 0.00 in0.0 mm 0.00 in0.0 mm 0.00 in0.0 mm
12:35 PM 14.0°F-10.0°C 7.9°F-13.4°C 76% 5.0 mph N8.0 kmh N -- 30.42 in1030.1 mb 0.00 in0.0 mm 0.00 in0.0 mm 0.00 in0.0 mm
12:40 PM 14.1°F-9.9°C 8.0°F-13.3°C 76% 4.0 mph NNW6.4 kmh NNW -- 30.42 in1030.1 mb 0.00 in0.0 mm 0.00 in0.0 mm 0.00 in0.0 mm
12:45 PM 13.9°F-10.1°C 7.5°F-13.6°C 75% 5.0 mph NW8.0 kmh NW -- 30.42 in1030.1 mb 0.00 in0.0 mm 0.00 in0.0 mm 0.00 in0.0 mm
12:50 PM 13.7°F-10.2°C 7.6°F-13.6°C 76% 7.0 mph N11.3 kmh N 10.0 mph16.1 kmh 30.41 in1029.8 mb 0.00 in0.0 mm 0.00 in0.0 mm 0.00 in0.0 mm
12:55 PM 13.9°F-10.1°C 7.8°F-13.4°C 76% 6.0 mph N9.7 kmh N 10.0 mph16.1 kmh 30.41 in1029.8 mb 0.00 in0.0 mm 0.00 in0.0 mm 0.00 in0.0 mm
01:00 PM 13.8°F-10.1°C 7.4°F-13.7°C 75% 7.0 mph N11.3 kmh N -- 30.41 in1029.8 mb 0.00 in0.0 mm 0.00 in0.0 mm 0.00 in0.0 mm
01:05 PM 14.1°F-9.9°C 7.7°F-13.5°C 75% 9.0 mph N14.5 kmh N -- 30.41 in1029.8 mb 0.00 in0.0 mm 0.00 in0.0 mm 0.00 in0.0 mm
01:10 PM 14.5°F-9.7°C 8.0°F-13.3°C 75% 4.0 mph NNW6.4 kmh NNW -- 30.40 in1029.5 mb 0.00 in0.0 mm 0.00 in0.0 mm 0.00 in0.0 mm
01:15 PM 14.9°F-9.5°C 8.1°F-13.3°C 74% 7.0 mph N11.3 kmh N -- 30.40 in1029.5 mb 0.00 in0.0 mm 0.00 in0.0 mm 0.00 in0.0 mm
01:20 PM 14.8°F-9.6°C 7.7°F-13.5°C 73% 5.0 mph N8.0 kmh N -- 30.39 in1029.1 mb 0.00 in0.0 mm 0.00 in0.0 mm 0.00 in0.0 mm
01:25 PM 15.0°F-9.4°C 7.9°F-13.4°C 73% 3.0 mph NNW4.8 kmh NNW -- 30.39 in1029.1 mb 0.00 in0.0 mm 0.00 in0.0 mm 0.00 in0.0 mm
01:30 PM 15.2°F-9.3°C 8.1°F-13.3°C 73% 5.0 mph N8.0 kmh N -- 30.39 in1029.1 mb 0.00 in0.0 mm 0.00 in0.0 mm 0.00 in0.0 mm
01:35 PM 15.3°F-9.3°C 8.2°F-13.2°C 73% 9.0 mph N14.5 kmh N -- 30.39 in1029.1 mb 0.00 in0.0 mm 0.00 in0.0 mm 0.00 in0.0 mm
01:40 PM 15.3°F-9.3°C 7.9°F-13.4°C 72% 5.0 mph NE8.0 kmh NE 9.0 mph14.5 kmh 30.38 in1028.8 mb 0.00 in0.0 mm 0.00 in0.0 mm 0.00 in0.0 mm
01:45 PM 15.4°F-9.2°C 7.7°F-13.5°C 71% 5.0 mph N8.0 kmh N 9.0 mph14.5 kmh 30.38 in1028.8 mb 0.00 in0.0 mm 0.00 in0.0 mm 0.00 in0.0 mm
01:50 PM 15.2°F-9.3°C 7.2°F-13.8°C 70% 5.0 mph NE8.0 kmh NE -- 30.38 in1028.8 mb 0.00 in0.0 mm 0.00 in0.0 mm 0.00 in0.0 mm
01:55 PM 15.4°F-9.2°C 7.7°F-13.5°C 71% 4.0 mph N6.4 kmh N -- 30.37 in1028.4 mb 0.00 in0.0 mm 0.00 in0.0 mm 0.00 in0.0 mm
02:00 PM 15.5°F-9.2°C 7.5°F-13.6°C 70% 5.0 mph NNE8.0 kmh NNE -- 30.37 in1028.4 mb 0.00 in0.0 mm 0.00 in0.0 mm 0.00 in0.0 mm
02:05 PM 15.8°F-9.0°C 8.1°F-13.3°C 71% Calm Calm -- 30.37 in1028.4 mb 0.00 in0.0 mm 0.00 in0.0 mm 0.00 in0.0 mm
02:10 PM 15.8°F-9.0°C 7.8°F-13.4°C 70% 6.0 mph NE9.7 kmh NE -- 30.37 in1028.4 mb 0.00 in0.0 mm 0.00 in0.0 mm 0.00 in0.0 mm
02:15 PM 15.9°F-8.9°C 7.9°F-13.4°C 70% 5.0 mph NW8.0 kmh NW -- 30.37 in1028.4 mb 0.00 in0.0 mm 0.00 in0.0 mm 0.00 in0.0 mm
02:20 PM 16.1°F-8.8°C 7.7°F-13.5°C 69% 3.0 mph NNE4.8 kmh NNE -- 30.37 in1028.4 mb 0.00 in0.0 mm 0.00 in0.0 mm 0.00 in0.0 mm
02:25 PM 16.0°F-8.9°C 7.3°F-13.7°C 68% 6.0 mph N9.7 kmh N -- 30.37 in1028.4 mb 0.00 in0.0 mm 0.00 in0.0 mm 0.00 in0.0 mm
02:30 PM 16.2°F-8.8°C 7.8°F-13.4°C 69% 6.0 mph N9.7 kmh N 10.0 mph16.1 kmh 30.37 in1028.4 mb 0.00 in0.0 mm 0.00 in0.0 mm 0.00 in0.0 mm
02:35 PM 16.2°F-8.8°C 7.5°F-13.6°C 68% 5.0 mph NW8.0 kmh NW 10.0 mph16.1 kmh 30.37 in1028.4 mb 0.00 in0.0 mm 0.00 in0.0 mm 0.00 in0.0 mm
02:40 PM 16.3°F-8.7°C 7.6°F-13.6°C 68% 5.0 mph NNW8.0 kmh NNW -- 30.37 in1028.4 mb 0.00 in0.0 mm 0.00 in0.0 mm 0.00 in0.0 mm
02:45 PM 16.4°F-8.7°C 7.4°F-13.7°C 67% 3.0 mph NNW4.8 kmh NNW -- 30.36 in1028.1 mb 0.00 in0.0 mm 0.00 in0.0 mm 0.00 in0.0 mm
02:50 PM 16.7°F-8.5°C 8.0°F-13.3°C 68% 3.0 mph N4.8 kmh N -- 30.36 in1028.1 mb 0.00 in0.0 mm 0.00 in0.0 mm 0.00 in0.0 mm
02:55 PM 16.8°F-8.4°C 7.4°F-13.7°C 66% 8.0 mph NW12.9 kmh NW -- 30.36 in1028.1 mb 0.00 in0.0 mm 0.00 in0.0 mm 0.00 in0.0 mm
03:00 PM 16.8°F-8.4°C 7.1°F-13.8°C 65% 6.0 mph N9.7 kmh N -- 30.36 in1028.1 mb 0.00 in0.0 mm 0.00 in0.0 mm 0.00 in0.0 mm
03:05 PM 16.8°F-8.4°C 6.8°F-14.0°C 64% 4.0 mph NNW6.4 kmh NNW -- 30.37 in1028.4 mb 0.00 in0.0 mm 0.00 in0.0 mm 0.00 in0.0 mm
03:10 PM 16.9°F-8.4°C 6.9°F-13.9°C 64% 5.0 mph N8.0 kmh N -- 30.36 in1028.1 mb 0.00 in0.0 mm 0.00 in0.0 mm 0.00 in0.0 mm
03:15 PM 16.8°F-8.4°C 7.1°F-13.8°C 65% 3.0 mph N4.8 kmh N -- 30.36 in1028.1 mb 0.00 in0.0 mm 0.00 in0.0 mm 0.00 in0.0 mm
03:20 PM 16.7°F-8.5°C 6.3°F-14.3°C 63% 5.0 mph NW8.0 kmh NW 9.0 mph14.5 kmh 30.36 in1028.1 mb 0.00 in0.0 mm 0.00 in0.0 mm 0.00 in0.0 mm
03:25 PM 16.7°F-8.5°C 6.3°F-14.3°C 63% 6.0 mph N9.7 kmh N 9.0 mph14.5 kmh 30.36 in1028.1 mb 0.00 in0.0 mm 0.00 in0.0 mm 0.00 in0.0 mm
03:30 PM 16.6°F-8.6°C 6.2°F-14.3°C 63% 4.0 mph NNW6.4 kmh NNW -- 30.36 in1028.1 mb 0.00 in0.0 mm 0.00 in0.0 mm 0.00 in0.0 mm
03:35 PM 16.8°F-8.4°C 6.4°F-14.2°C 63% 3.0 mph NNW4.8 kmh NNW -- 30.35 in1027.8 mb 0.00 in0.0 mm 0.00 in0.0 mm 0.00 in0.0 mm
03:40 PM 16.7°F-8.5°C 6.0°F-14.4°C 62% 2.0 mph N3.2 kmh N -- 30.35 in1027.8 mb 0.00 in0.0 mm 0.00 in0.0 mm 0.00 in0.0 mm
03:45 PM 16.8°F-8.4°C 6.4°F-14.2°C 63% 3.0 mph N4.8 kmh N -- 30.35 in1027.8 mb 0.00 in0.0 mm 0.00 in0.0 mm 0.00 in0.0 mm
03:50 PM 16.8°F-8.4°C 5.7°F-14.6°C 61% 3.0 mph N4.8 kmh N -- 30.35 in1027.8 mb 0.00 in0.0 mm 0.00 in0.0 mm 0.00 in0.0 mm
03:55 PM 17.0°F-8.3°C 6.3°F-14.3°C 62% 5.0 mph NNE8.0 kmh NNE -- 30.35 in1027.8 mb 0.00 in0.0 mm 0.00 in0.0 mm 0.00 in0.0 mm
04:00 PM 16.9°F-8.4°C 6.2°F-14.3°C 62% 4.0 mph NE6.4 kmh NE -- 30.36 in1028.1 mb 0.00 in0.0 mm 0.00 in0.0 mm 0.00 in0.0 mm
04:05 PM 17.0°F-8.3°C 6.3°F-14.3°C 62% 1.0 mph NE1.6 kmh NE -- 30.35 in1027.8 mb 0.00 in0.0 mm 0.00 in0.0 mm 0.00 in0.0 mm
04:10 PM 16.9°F-8.4°C 6.2°F-14.3°C 62% Calm Calm 5.0 mph8.0 kmh 30.35 in1027.8 mb 0.00 in0.0 mm 0.00 in0.0 mm 0.00 in0.0 mm
04:15 PM 16.9°F-8.4°C 6.2°F-14.3°C 62% Calm Calm 5.0 mph8.0 kmh 30.36 in1028.1 mb 0.00 in0.0 mm 0.00 in0.0 mm 0.00 in0.0 mm
04:20 PM 16.9°F-8.4°C 5.8°F-14.6°C 61% 2.0 mph NE3.2 kmh NE -- 30.36 in1028.1 mb 0.00 in0.0 mm 0.00 in0.0 mm 0.00 in0.0 mm
04:25 PM 16.8°F-8.4°C 5.7°F-14.6°C 61% 1.0 mph NE1.6 kmh NE -- 30.36 in1028.1 mb 0.00 in0.0 mm 0.00 in0.0 mm 0.00 in0.0 mm
04:30 PM 16.8°F-8.4°C 5.7°F-14.6°C 61% Calm Calm -- 30.36 in1028.1 mb 0.00 in0.0 mm 0.00 in0.0 mm 0.00 in0.0 mm
04:35 PM 16.8°F-8.4°C 5.7°F-14.6°C 61% 4.0 mph NE6.4 kmh NE -- 30.36 in1028.1 mb 0.00 in0.0 mm 0.00 in0.0 mm 0.00 in0.0 mm
04:40 PM 16.8°F-8.4°C 5.7°F-14.6°C 61% 1.0 mph NE1.6 kmh NE -- 30.36 in1028.1 mb 0.00 in0.0 mm 0.00 in0.0 mm 0.00 in0.0 mm
04:45 PM 16.8°F-8.4°C 5.4°F-14.8°C 60% Calm Calm -- 30.37 in1028.4 mb 0.00 in0.0 mm 0.00 in0.0 mm 0.00 in0.0 mm
04:50 PM 17.0°F-8.3°C 5.5°F-14.7°C 60% 2.0 mph NE3.2 kmh NE -- 30.37 in1028.4 mb 0.00 in0.0 mm 0.00 in0.0 mm 0.00 in0.0 mm
04:55 PM 16.9°F-8.4°C 5.4°F-14.8°C 60% 1.0 mph NE1.6 kmh NE -- 30.36 in1028.1 mb 0.00 in0.0 mm 0.00 in0.0 mm 0.00 in0.0 mm
05:00 PM 16.8°F-8.4°C 5.0°F-15.0°C 59% Calm Calm 4.0 mph6.4 kmh 30.36 in1028.1 mb 0.00 in0.0 mm 0.00 in0.0 mm 0.00 in0.0 mm
05:05 PM 16.7°F-8.5°C 4.9°F-15.1°C 59% 4.0 mph NE6.4 kmh NE 4.0 mph6.4 kmh 30.36 in1028.1 mb 0.00 in0.0 mm 0.00 in0.0 mm 0.00 in0.0 mm
05:10 PM 16.6°F-8.6°C 4.4°F-15.3°C 58% 2.0 mph NE3.2 kmh NE -- 30.36 in1028.1 mb 0.00 in0.0 mm 0.00 in0.0 mm 0.00 in0.0 mm
05:15 PM 16.5°F-8.6°C 4.3°F-15.4°C 58% 3.0 mph NE4.8 kmh NE -- 30.36 in1028.1 mb 0.00 in0.0 mm 0.00 in0.0 mm 0.00 in0.0 mm
05:20 PM 16.4°F-8.7°C 4.2°F-15.4°C 58% Calm Calm -- 30.36 in1028.1 mb 0.00 in0.0 mm 0.00 in0.0 mm 0.00 in0.0 mm
05:25 PM 16.3°F-8.7°C 4.5°F-15.3°C 59% Calm Calm -- 30.36 in1028.1 mb 0.00 in0.0 mm 0.00 in0.0 mm 0.00 in0.0 mm
05:30 PM 16.3°F-8.7°C 4.5°F-15.3°C 59% Calm Calm -- 30.36 in1028.1 mb 0.00 in0.0 mm 0.00 in0.0 mm 0.00 in0.0 mm
05:35 PM 16.2°F-8.8°C 4.1°F-15.5°C 58% Calm Calm -- 30.36 in1028.1 mb 0.00 in0.0 mm 0.00 in0.0 mm 0.00 in0.0 mm
05:40 PM 16.1°F-8.8°C 4.0°F-15.6°C 58% Calm Calm -- 30.36 in1028.1 mb 0.00 in0.0 mm 0.00 in0.0 mm 0.00 in0.0 mm
05:45 PM 16.0°F-8.9°C 3.9°F-15.6°C 58% Calm Calm -- 30.36 in1028.1 mb 0.00 in0.0 mm 0.00 in0.0 mm 0.00 in0.0 mm
05:50 PM 15.8°F-9.0°C 3.7°F-15.7°C 58% Calm Calm 1.0 mph1.6 kmh 30.36 in1028.1 mb 0.00 in0.0 mm 0.00 in0.0 mm 0.00 in0.0 mm
05:55 PM 15.7°F-9.1°C 3.9°F-15.6°C 59% Calm Calm 1.0 mph1.6 kmh 30.36 in1028.1 mb 0.00 in0.0 mm 0.00 in0.0 mm 0.00 in0.0 mm
06:00 PM 15.7°F-9.1°C 3.9°F-15.6°C 59% Calm Calm -- 30.36 in1028.1 mb 0.00 in0.0 mm 0.00 in0.0 mm 0.00 in0.0 mm
06:05 PM 15.7°F-9.1°C 4.3°F-15.4°C 60% Calm Calm -- 30.36 in1028.1 mb 0.00 in0.0 mm 0.00 in0.0 mm 0.00 in0.0 mm
06:10 PM 15.4°F-9.2°C 4.0°F-15.6°C 60% Calm Calm -- 30.36 in1028.1 mb 0.00 in0.0 mm 0.00 in0.0 mm 0.00 in0.0 mm
06:15 PM 14.9°F-9.5°C 3.9°F-15.6°C 61% Calm Calm -- 30.36 in1028.1 mb 0.00 in0.0 mm 0.00 in0.0 mm 0.00 in0.0 mm
06:20 PM 14.5°F-9.7°C 3.9°F-15.6°C 62% Calm Calm -- 30.36 in1028.1 mb 0.00 in0.0 mm 0.00 in0.0 mm 0.00 in0.0 mm
06:25 PM 14.1°F-9.9°C 3.5°F-15.8°C 62% Calm Calm -- 30.36 in1028.1 mb 0.00 in0.0 mm 0.00 in0.0 mm 0.00 in0.0 mm
06:30 PM 13.6°F-10.2°C 3.4°F-15.9°C 63% Calm Calm -- 30.37 in1028.4 mb 0.00 in0.0 mm 0.00 in0.0 mm 0.00 in0.0 mm
06:35 PM 13.1°F-10.5°C 3.2°F-16.0°C 64% Calm Calm -- 30.37 in1028.4 mb 0.00 in0.0 mm 0.00 in0.0 mm 0.00 in0.0 mm
06:40 PM 12.5°F-10.8°C 2.3°F-16.5°C 63% Calm Calm -- 30.37 in1028.4 mb 0.00 in0.0 mm 0.00 in0.0 mm 0.00 in0.0 mm
06:45 PM 12.2°F-11.0°C 2.4°F-16.4°C 64% Calm Calm -- 30.37 in1028.4 mb 0.00 in0.0 mm 0.00 in0.0 mm 0.00 in0.0 mm
06:50 PM 11.6°F-11.3°C 1.8°F-16.8°C 64% Calm Calm -- 30.38 in1028.8 mb 0.00 in0.0 mm 0.00 in0.0 mm 0.00 in0.0 mm
06:55 PM 11.0°F-11.7°C 1.6°F-16.9°C 65% Calm Calm -- 30.38 in1028.8 mb 0.00 in0.0 mm 0.00 in0.0 mm 0.00 in0.0 mm
07:00 PM 10.8°F-11.8°C 1.7°F-16.8°C 66% Calm Calm -- 30.38 in1028.8 mb 0.00 in0.0 mm 0.00 in0.0 mm 0.00 in0.0 mm
07:05 PM 10.4°F-12.0°C 1.6°F-16.9°C 67% Calm Calm -- 30.38 in1028.8 mb 0.00 in0.0 mm 0.00 in0.0 mm 0.00 in0.0 mm
07:10 PM 9.9°F-12.3°C 1.5°F-16.9°C 68% Calm Calm -- 30.38 in1028.8 mb 0.00 in0.0 mm 0.00 in0.0 mm 0.00 in0.0 mm
07:15 PM 9.0°F-12.8°C 0.6°F-17.4°C 68% Calm Calm -- 30.38 in1028.8 mb 0.00 in0.0 mm 0.00 in0.0 mm 0.00 in0.0 mm
07:20 PM 8.6°F-13.0°C 0.5°F-17.5°C 69% Calm Calm -- 30.38 in1028.8 mb 0.00 in0.0 mm 0.00 in0.0 mm 0.00 in0.0 mm
07:25 PM 8.7°F-12.9°C 1.0°F-17.2°C 70% Calm Calm -- 30.38 in1028.8 mb 0.00 in0.0 mm 0.00 in0.0 mm 0.00 in0.0 mm
07:30 PM 8.4°F-13.1°C 0.4°F-17.6°C 69% Calm Calm -- 30.38 in1028.8 mb 0.00 in0.0 mm 0.00 in0.0 mm 0.00 in0.0 mm
07:35 PM 7.7°F-13.5°C 0.0°F-17.8°C 70% Calm Calm -- 30.38 in1028.8 mb 0.00 in0.0 mm 0.00 in0.0 mm 0.00 in0.0 mm
07:40 PM 7.5°F-13.6°C 0.1°F-17.7°C 71% Calm Calm -- 30.38 in1028.8 mb 0.00 in0.0 mm 0.00 in0.0 mm 0.00 in0.0 mm
07:45 PM 7.4°F-13.7°C 0.0°F-17.8°C 71% Calm Calm -- 30.38 in1028.8 mb 0.00 in0.0 mm 0.00 in0.0 mm 0.00 in0.0 mm
07:50 PM 7.3°F-13.7°C 0.2°F-17.7°C 72% Calm Calm -- 30.38 in1028.8 mb 0.00 in0.0 mm 0.00 in0.0 mm 0.00 in0.0 mm
07:55 PM 7.1°F-13.8°C 0.0°F-17.8°C 72% Calm Calm -- 30.38 in1028.8 mb 0.00 in0.0 mm 0.00 in0.0 mm 0.00 in0.0 mm
08:00 PM 6.9°F-13.9°C 0.1°F-17.7°C 73% Calm Calm -- 30.38 in1028.8 mb 0.00 in0.0 mm 0.00 in0.0 mm 0.00 in0.0 mm
08:05 PM 6.7°F-14.1°C -0.4°F-18.0°C 72% Calm Calm -- 30.38 in1028.8 mb 0.00 in0.0 mm 0.00 in0.0 mm 0.00 in0.0 mm
08:10 PM 5.6°F-14.7°C -1.7°F-18.7°C 71% Calm Calm -- 30.38 in1028.8 mb 0.00 in0.0 mm 0.00 in0.0 mm 0.00 in0.0 mm
08:15 PM 4.9°F-15.1°C -2.1°F-18.9°C 72% Calm Calm -- 30.39 in1029.1 mb 0.00 in0.0 mm 0.00 in0.0 mm 0.00 in0.0 mm
08:20 PM 4.5°F-15.3°C -2.2°F-19.0°C 73% Calm Calm -- 30.39 in1029.1 mb 0.00 in0.0 mm 0.00 in0.0 mm 0.00 in0.0 mm
08:25 PM 4.3°F-15.4°C -2.4°F-19.1°C 73% Calm Calm -- 30.39 in1029.1 mb 0.00 in0.0 mm 0.00 in0.0 mm 0.00 in0.0 mm
08:30 PM 3.9°F-15.6°C -2.8°F-19.3°C 73% Calm Calm -- 30.39 in1029.1 mb 0.00 in0.0 mm 0.00 in0.0 mm 0.00 in0.0 mm
08:35 PM 3.8°F-15.7°C -2.6°F-19.2°C 74% Calm Calm -- 30.40 in1029.5 mb 0.00 in0.0 mm 0.00 in0.0 mm 0.00 in0.0 mm
08:40 PM 3.7°F-15.7°C -2.4°F-19.1°C 75% Calm Calm -- 30.40 in1029.5 mb 0.00 in0.0 mm 0.00 in0.0 mm 0.00 in0.0 mm
08:45 PM 3.8°F-15.7°C -2.0°F-18.9°C 76% Calm Calm -- 30.40 in1029.5 mb 0.00 in0.0 mm 0.00 in0.0 mm 0.00 in0.0 mm
08:50 PM 3.7°F-15.7°C -2.1°F-18.9°C 76% Calm Calm -- 30.40 in1029.5 mb 0.00 in0.0 mm 0.00 in0.0 mm 0.00 in0.0 mm
08:55 PM 3.5°F-15.8°C -2.3°F-19.1°C 76% Calm Calm -- 30.40 in1029.5 mb 0.00 in0.0 mm 0.00 in0.0 mm 0.00 in0.0 mm
09:00 PM 3.4°F-15.9°C -2.2°F-19.0°C 77% Calm Calm -- 30.40 in1029.5 mb 0.00 in0.0 mm 0.00 in0.0 mm 0.00 in0.0 mm
09:05 PM 3.2°F-16.0°C -2.4°F-19.1°C 77% Calm Calm -- 30.40 in1029.5 mb 0.00 in0.0 mm 0.00 in0.0 mm 0.00 in0.0 mm
09:10 PM 3.0°F-16.1°C -2.5°F-19.2°C 77% Calm Calm -- 30.40 in1029.5 mb 0.00 in0.0 mm 0.00 in0.0 mm 0.00 in0.0 mm
09:15 PM 2.8°F-16.2°C -2.5°F-19.2°C 78% Calm Calm -- 30.40 in1029.5 mb 0.00 in0.0 mm 0.00 in0.0 mm 0.00 in0.0 mm
09:20 PM 2.6°F-16.3°C -2.7°F-19.3°C 78% Calm Calm -- 30.40 in1029.5 mb 0.00 in0.0 mm 0.00 in0.0 mm 0.00 in0.0 mm
09:25 PM 2.3°F-16.5°C -3.0°F-19.4°C 78% Calm Calm -- 30.40 in1029.5 mb 0.00 in0.0 mm 0.00 in0.0 mm 0.00 in0.0 mm
09:30 PM 2.0°F-16.7°C -3.3°F-19.6°C 78% Calm Calm -- 30.40 in1029.5 mb 0.00 in0.0 mm 0.00 in0.0 mm 0.00 in0.0 mm
09:35 PM 1.9°F-16.7°C -3.3°F-19.6°C 78% Calm Calm -- 30.39 in1029.1 mb 0.00 in0.0 mm 0.00 in0.0 mm 0.00 in0.0 mm
09:40 PM 1.7°F-16.8°C -3.5°F-19.7°C 78% Calm Calm -- 30.39 in1029.1 mb 0.00 in0.0 mm 0.00 in0.0 mm 0.00 in0.0 mm
09:45 PM 1.4°F-17.0°C -3.6°F-19.8°C 79% Calm Calm -- 30.40 in1029.5 mb 0.00 in0.0 mm 0.00 in0.0 mm 0.00 in0.0 mm
09:50 PM 1.2°F-17.1°C -3.8°F-19.9°C 79% Calm Calm -- 30.39 in1029.1 mb 0.00 in0.0 mm 0.00 in0.0 mm 0.00 in0.0 mm
09:55 PM 0.9°F-17.3°C -4.1°F-20.1°C 79% Calm Calm -- 30.40 in1029.5 mb 0.00 in0.0 mm 0.00 in0.0 mm 0.00 in0.0 mm
10:00 PM 0.8°F-17.3°C -4.2°F-20.1°C 79% Calm Calm -- 30.40 in1029.5 mb 0.00 in0.0 mm 0.00 in0.0 mm 0.00 in0.0 mm
10:05 PM 0.8°F-17.3°C -3.9°F-19.9°C 80% Calm Calm -- 30.40 in1029.5 mb 0.00 in0.0 mm 0.00 in0.0 mm 0.00 in0.0 mm
10:10 PM 0.9°F-17.3°C -3.8°F-19.9°C 80% Calm Calm -- 30.40 in1029.5 mb 0.00 in0.0 mm 0.00 in0.0 mm 0.00 in0.0 mm
10:15 PM 1.1°F-17.2°C -3.3°F-19.6°C 81% Calm Calm -- 30.40 in1029.5 mb 0.00 in0.0 mm 0.00 in0.0 mm 0.00 in0.0 mm
10:20 PM 1.1°F-17.2°C -3.6°F-19.8°C 80% Calm Calm -- 30.41 in1029.8 mb 0.00 in0.0 mm 0.00 in0.0 mm 0.00 in0.0 mm
10:25 PM 1.0°F-17.2°C -3.7°F-19.8°C 80% Calm Calm -- 30.40 in1029.5 mb 0.00 in0.0 mm 0.00 in0.0 mm 0.00 in0.0 mm
10:30 PM 0.6°F-17.4°C -4.4°F-20.2°C 79% Calm Calm -- 30.40 in1029.5 mb 0.00 in0.0 mm 0.00 in0.0 mm 0.00 in0.0 mm
10:35 PM 0.1°F-17.7°C -4.8°F-20.4°C 79% Calm Calm -- 30.40 in1029.5 mb 0.00 in0.0 mm 0.00 in0.0 mm 0.00 in0.0 mm
10:40 PM -0.1°F-17.8°C -5.0°F-20.6°C 79% Calm Calm -- 30.40 in1029.5 mb 0.00 in0.0 mm 0.00 in0.0 mm 0.00 in0.0 mm
10:45 PM -0.4°F-18.0°C -5.3°F-20.7°C 79% Calm Calm -- 30.40 in1029.5 mb 0.00 in0.0 mm 0.00 in0.0 mm 0.00 in0.0 mm
10:50 PM -0.2°F-17.9°C -4.9°F-20.5°C 80% Calm Calm -- 30.39 in1029.1 mb 0.00 in0.0 mm 0.00 in0.0 mm 0.00 in0.0 mm
10:55 PM -0.1°F-17.8°C -4.8°F-20.4°C 80% Calm Calm -- 30.40 in1029.5 mb 0.00 in0.0 mm 0.00 in0.0 mm 0.00 in0.0 mm
11:00 PM -0.3°F-17.9°C -5.0°F-20.6°C 80% Calm Calm -- 30.39 in1029.1 mb 0.00 in0.0 mm 0.00 in0.0 mm 0.00 in0.0 mm
11:05 PM -0.4°F-18.0°C -5.1°F-20.6°C 80% Calm Calm -- 30.39 in1029.1 mb 0.00 in0.0 mm 0.00 in0.0 mm 0.00 in0.0 mm
11:10 PM -0.7°F-18.2°C -5.4°F-20.8°C 80% Calm Calm -- 30.40 in1029.5 mb 0.00 in0.0 mm 0.00 in0.0 mm 0.00 in0.0 mm
11:15 PM -0.9°F-18.3°C -5.6°F-20.9°C 80% Calm Calm -- 30.40 in1029.5 mb 0.00 in0.0 mm 0.00 in0.0 mm 0.00 in0.0 mm
11:20 PM -1.2°F-18.4°C -5.8°F-21.0°C 80% Calm Calm -- 30.40 in1029.5 mb 0.00 in0.0 mm 0.00 in0.0 mm 0.00 in0.0 mm
11:25 PM -1.4°F-18.6°C -6.0°F-21.1°C 80% Calm Calm -- 30.40 in1029.5 mb 0.00 in0.0 mm 0.00 in0.0 mm 0.00 in0.0 mm
11:30 PM -1.4°F-18.6°C -5.8°F-21.0°C 81% Calm Calm -- 30.40 in1029.5 mb 0.00 in0.0 mm 0.00 in0.0 mm 0.00 in0.0 mm
11:35 PM -1.4°F-18.6°C -5.8°F-21.0°C 81% Calm Calm -- 30.40 in1029.5 mb 0.00 in0.0 mm 0.00 in0.0 mm 0.00 in0.0 mm
11:40 PM -1.4°F-18.6°C -5.8°F-21.0°C 81% Calm Calm -- 30.39 in1029.1 mb 0.00 in0.0 mm 0.00 in0.0 mm 0.00 in0.0 mm
11:45 PM -1.3°F-18.5°C -5.7°F-20.9°C 81% Calm Calm -- 30.39 in1029.1 mb 0.00 in0.0 mm 0.00 in0.0 mm 0.00 in0.0 mm
11:50 PM -1.3°F-18.5°C -5.7°F-20.9°C 81% Calm Calm -- 30.39 in1029.1 mb 0.00 in0.0 mm 0.00 in0.0 mm 0.00 in0.0 mm
11:55 PM -1.3°F-18.5°C -5.7°F-20.9°C 81% Calm Calm -- 30.39 in1029.1 mb 0.00 in0.0 mm 0.00 in0.0 mm 0.00 in0.0 mm